9IL0 weather

Villiger Restricted Landing Area
Henry, Illinois, United States

Public forecast

Using degrees Fahrenheit for public forecast. Weather courtesy of forecast.io.

Closest aviation weather report (METAR) to Villiger Restricted Landing Area

Closest report is Marshall County Airport, 4.5 nm (8.4 km) S. Retrieved 2019/12/10 10:35 UTC (8 minutes ago):

KC75 101035Z AUTO 28011G17KT 10SM CLR M10/M16 A3010 RMK AO2 T11021156

Closest aviation forecast (TAF) to Villiger Restricted Landing Area

Closest forecast is General Wayne A. Downing Peoria International Airport, 29.4 nm (54.4 km) SSW. Retrieved 2019/12/10 06:22 UTC (4 hours ago):

TAF KPIA 100520Z 1006/1106 29014G23KT P6SM FEW025 SCT250 TEMPO 1006/1008 BKN018 FM101200 28011KT P6SM SCT250 FM110000 29005KT P6SM FEW250